Aérodrome :
LOGIN :

S'inscrire | Disclaimer

   EN    FR    IT 

 










Légende :    VFR   VFR Marginal   IFR   IFR Intensif   IFR Très Intensif
Visi : 
Plafond : 
>= 8 km
>= 3000ft
5 à 8 km
1000 à 3000 ft
1500m à 5 km
500 à 1000 ft
800 à 1500m
200 à 500 ft
< 800m
< 200 ft
Symboles :   Orages  Brouillard  Fortes neiges  Fortes précipitations  Vent > 20 kt
SIGMETs :   Divers  Orages  Givrage  Turbulence  Onde Orograph.  Cendres Volcan.






- Altitude de l'aérodrome : 1504 ft
- Code IATA : PNA


LEPP - Noain Pamplona

DERNIER METAR :
  • 220230Z AUTO 11012KT 080V140 CAVOK 11/07 Q1013

METARs EXPIRÉS :
  • 220200Z AUTO 12010KT 080V150 9999 OVC057 11/07 Q1013
  • 220130Z AUTO 11011KT 080V150 9999 BKN056 11/07 Q1013
  • 220100Z AUTO 12012KT 9999 BKN056 11/08 Q1013
  • 220030Z AUTO 12011KT CAVOK 11/08 Q1013
  • 220000Z AUTO 13009KT CAVOK 11/08 Q1013

TAF TAF LEPP
Valide du 22 à 03h jusqu'au 23 à 03h UTC


220200Z 2203/2303 VRB04KT 9999 SCT040 TX17/2213Z TN05/2303Z
PROB30
TEMPO 2203/2212 3000 RA
TEMPO 2210/2219 16010KT
TEMPO 2220/2303 3000 BR BCFG
PROB30
TEMPO 2220/2303 0800 BCFG BKN002



MET'MAP, la Météo Aéronautique d'un coup d'oeil ! - Copyright ORBIFLY Décembre 2007 - Disclaimer

ORBIFLY MET'MAP TEAM :

Programmation & Développement : Alexandra Zaïnal
Sur une idée originale de : Baudouin d'Aumeries
Assistance à la programmation : Marc-Olivier Méhu
Soutien technique & logistique : Manuel Goepfert

Contact : metmap@orbifly.com




SOURCES & CREDITS :

   NOAA